createdAt,value
2023-03-19T00:00:35.284Z,32.54
2023-03-19T00:03:06.763Z,32.46
2023-03-19T00:05:39.363Z,32.24
2023-03-19T00:08:08.845Z,32.30
2023-03-19T00:10:41.316Z,32.30
2023-03-19T00:13:11.336Z,32.36
2023-03-19T00:15:48.080Z,32.47
2023-03-19T00:18:17.398Z,32.39
2023-03-19T00:20:47.143Z,32.29
2023-03-19T00:23:18.884Z,32.27
2023-03-19T00:25:48.519Z,32.28
2023-03-19T00:28:19.457Z,32.41
2023-03-19T00:30:49.879Z,32.32
2023-03-19T00:33:21.731Z,32.25
2023-03-19T00:35:51.183Z,32.26
2023-03-19T00:45:49.975Z,32.62
2023-03-19T00:48:19.969Z,32.48
2023-03-19T00:50:50.182Z,32.35
2023-03-19T00:53:20.054Z,32.35
2023-03-19T00:55:50.310Z,32.40
2023-03-19T00:58:20.583Z,32.41
2023-03-19T01:00:53.996Z,32.43
2023-03-19T01:03:24.055Z,32.44
2023-03-19T01:05:53.461Z,32.44
2023-03-19T01:08:23.054Z,32.48
2023-03-19T01:10:54.187Z,32.60
2023-03-19T01:13:24.590Z,32.75
2023-03-19T01:15:54.747Z,32.79
2023-03-19T01:18:25.178Z,32.70
2023-03-19T01:20:57.452Z,32.64
2023-03-19T01:23:26.536Z,32.60
2023-03-19T01:25:57.723Z,32.65
2023-03-19T01:28:28.945Z,32.59
2023-03-19T01:31:06.369Z,32.58
2023-03-19T01:34:00.207Z,32.58
2023-03-19T01:36:37.316Z,32.42
2023-03-19T01:39:08.968Z,32.45
2023-03-19T01:41:39.430Z,32.37
2023-03-19T01:44:37.569Z,32.30
2023-03-19T01:47:34.900Z,32.27
2023-03-19T01:50:29.665Z,32.31
2023-03-19T01:53:17.224Z,32.59
2023-03-19T01:55:55.411Z,32.47
2023-03-19T01:58:42.476Z,32.45
2023-03-19T02:01:25.698Z,32.38
2023-03-19T02:03:56.584Z,32.24
2023-03-19T02:06:34.097Z,32.23
2023-03-19T02:09:04.530Z,32.24
2023-03-19T02:11:35.049Z,32.18
2023-03-19T02:14:10.104Z,32.09
2023-03-19T02:16:40.628Z,31.95
2023-03-19T02:19:13.698Z,31.81
2023-03-19T02:21:49.029Z,31.78
2023-03-19T02:24:56.453Z,31.81
2023-03-19T02:27:26.291Z,31.69
2023-03-19T02:29:56.869Z,31.62
2023-03-19T02:32:28.301Z,31.63
2023-03-19T02:34:59.478Z,31.62
2023-03-19T02:37:33.699Z,31.58
2023-03-19T02:40:12.802Z,31.54
2023-03-19T02:42:42.226Z,31.59
2023-03-19T02:45:12.080Z,31.91
2023-03-19T02:47:42.676Z,31.85
2023-03-19T02:50:15.058Z,31.75
2023-03-19T02:52:48.368Z,31.74
2023-03-19T02:55:19.500Z,31.65
2023-03-19T02:57:48.706Z,31.65
2023-03-19T03:00:19.909Z,31.77
2023-03-19T03:02:49.848Z,31.81
2023-03-19T03:05:20.481Z,31.83
2023-03-19T03:07:52.177Z,31.82
2023-03-19T03:10:21.122Z,31.76
2023-03-19T03:12:50.638Z,31.71
2023-03-19T03:15:22.195Z,31.88
2023-03-19T03:17:51.514Z,31.88
2023-03-19T03:20:21.910Z,31.79
2023-03-19T03:22:51.525Z,31.67
2023-03-19T03:25:22.257Z,31.66
2023-03-19T03:27:51.958Z,31.50
2023-03-19T03:30:23.836Z,31.48
2023-03-19T03:32:53.801Z,31.45
2023-03-19T03:35:23.346Z,31.43
2023-03-19T03:37:53.859Z,31.41
2023-03-19T03:40:26.217Z,31.44
2023-03-19T03:42:59.784Z,31.46
2023-03-19T03:45:29.855Z,31.34
2023-03-19T03:47:59.901Z,31.34
2023-03-19T03:50:30.020Z,31.34
2023-03-19T03:53:03.213Z,31.24
2023-03-19T03:55:32.619Z,31.27
2023-03-19T03:58:02.621Z,31.21
2023-03-19T04:00:34.939Z,31.17
2023-03-19T04:03:05.129Z,31.03
2023-03-19T04:05:34.520Z,30.94
2023-03-19T04:08:05.299Z,30.91
2023-03-19T04:10:36.828Z,30.81
2023-03-19T04:13:06.057Z,30.79
2023-03-19T04:15:36.229Z,30.87
2023-03-19T04:18:07.777Z,31.04
2023-03-19T04:20:38.326Z,31.08
2023-03-19T04:23:11.818Z,30.91
2023-03-19T04:25:42.321Z,30.85
2023-03-19T04:28:13.253Z,30.71
2023-03-19T04:30:46.341Z,30.77
2023-03-19T04:33:16.587Z,30.90
2023-03-19T04:35:46.615Z,30.88
2023-03-19T04:38:15.534Z,30.99
2023-03-19T04:40:45.289Z,31.00
2023-03-19T04:43:17.119Z,31.00
2023-03-19T04:45:46.916Z,30.84
2023-03-19T04:48:19.850Z,30.60
2023-03-19T04:50:52.857Z,30.59
2023-03-19T04:53:25.653Z,30.86
2023-03-19T04:55:54.827Z,30.89
2023-03-19T04:58:25.157Z,30.92
2023-03-19T05:00:59.832Z,31.08
2023-03-19T05:03:46.238Z,31.18
2023-03-19T05:06:25.201Z,31.24
2023-03-19T05:08:54.527Z,31.14
2023-03-19T05:11:24.688Z,31.14
2023-03-19T05:14:10.826Z,31.15
2023-03-19T05:16:51.349Z,31.14
2023-03-19T05:19:26.938Z,31.25
2023-03-19T05:21:58.689Z,31.39
2023-03-19T05:24:28.702Z,31.35
2023-03-19T05:27:05.999Z,31.41
2023-03-19T05:29:48.899Z,31.53
2023-03-19T05:32:47.821Z,31.84
2023-03-19T05:35:26.229Z,32.00
2023-03-19T05:37:55.968Z,32.05
2023-03-19T05:40:25.828Z,32.15
2023-03-19T05:42:55.881Z,32.24
2023-03-19T05:45:28.063Z,32.38
2023-03-19T05:48:01.185Z,32.58
2023-03-19T05:50:32.482Z,32.70
2023-03-19T05:53:14.470Z,32.88
2023-03-19T05:55:47.437Z,33.00
2023-03-19T05:58:21.246Z,33.10
2023-03-19T06:00:52.772Z,33.20
2023-03-19T06:03:21.882Z,33.41
2023-03-19T06:05:54.237Z,33.56
2023-03-19T06:08:40.772Z,33.63
2023-03-19T06:11:21.273Z,33.62
2023-03-19T06:14:01.826Z,33.62
2023-03-19T06:16:33.632Z,33.59
2023-03-19T06:19:09.494Z,33.71
2023-03-19T06:21:39.110Z,33.91
2023-03-19T06:24:09.311Z,33.99
2023-03-19T06:26:42.478Z,34.16
2023-03-19T06:29:18.156Z,34.32
2023-03-19T06:31:50.572Z,34.37
2023-03-19T06:34:25.741Z,34.44
2023-03-19T06:36:57.585Z,34.48
2023-03-19T06:39:26.534Z,34.60
2023-03-19T06:41:55.387Z,34.61
2023-03-19T06:44:29.057Z,34.65
2023-03-19T06:46:59.016Z,34.96
2023-03-19T06:49:33.037Z,34.88
2023-03-19T06:52:08.355Z,34.97
2023-03-19T06:54:38.683Z,35.15
2023-03-19T06:57:08.041Z,35.28
2023-03-19T06:59:39.364Z,35.39
2023-03-19T07:02:12.317Z,35.51
2023-03-19T07:04:43.028Z,35.47
2023-03-19T07:07:13.518Z,35.58
2023-03-19T07:09:42.778Z,35.43
2023-03-19T07:12:13.360Z,35.53
2023-03-19T07:14:43.972Z,35.60
2023-03-19T07:17:12.972Z,35.74
2023-03-19T07:19:44.054Z,35.94
2023-03-19T07:22:19.826Z,36.11
2023-03-19T07:24:49.305Z,36.23
2023-03-19T07:27:21.498Z,36.40
2023-03-19T07:29:50.783Z,36.43
2023-03-19T07:32:19.691Z,36.26
2023-03-19T07:34:50.955Z,36.34
2023-03-19T07:37:22.435Z,36.47
2023-03-19T07:39:51.654Z,36.53
2023-03-19T07:42:21.694Z,36.61
2023-03-19T07:44:51.335Z,36.68
2023-03-19T07:47:29.027Z,36.85
2023-03-19T07:49:58.743Z,37.00
2023-03-19T07:52:28.587Z,37.20
2023-03-19T07:55:00.216Z,37.32
2023-03-19T07:57:33.356Z,37.24
2023-03-19T08:00:08.838Z,37.12
2023-03-19T08:02:44.791Z,36.96
2023-03-19T08:05:20.122Z,36.93
2023-03-19T08:08:18.584Z,37.00
2023-03-19T08:11:10.771Z,37.20
2023-03-19T08:13:41.252Z,37.24
2023-03-19T08:16:14.140Z,37.35
2023-03-19T08:18:44.185Z,37.56
2023-03-19T08:21:14.204Z,37.54
2023-03-19T08:23:46.307Z,37.55
2023-03-19T08:26:15.109Z,37.56
2023-03-19T08:28:45.664Z,37.53
2023-03-19T08:31:15.106Z,37.56
2023-03-19T08:33:44.378Z,37.56
2023-03-19T08:36:15.003Z,37.63
2023-03-19T08:38:45.782Z,37.88
2023-03-19T08:41:17.984Z,37.86
2023-03-19T08:43:48.899Z,37.98
2023-03-19T08:46:18.638Z,38.14
2023-03-19T08:48:49.006Z,38.32
2023-03-19T08:51:18.143Z,38.33
2023-03-19T09:33:43.131Z,40.29
2023-03-19T09:36:15.957Z,40.32
2023-03-19T09:38:46.337Z,40.44
2023-03-19T09:41:24.530Z,40.54
2023-03-19T09:44:05.441Z,40.64
2023-03-19T09:46:46.335Z,40.59
2023-03-19T09:49:23.662Z,40.61
2023-03-19T09:52:10.986Z,40.67
2023-03-19T09:54:47.012Z,40.71
2023-03-19T09:57:16.429Z,40.71
2023-03-19T09:59:45.472Z,40.66
2023-03-19T10:02:19.664Z,40.75
2023-03-19T10:05:08.158Z,40.79
2023-03-19T10:07:35.787Z,40.94
2023-03-19T10:10:42.233Z,40.94
2023-03-19T10:13:32.447Z,40.87
2023-03-19T10:16:06.065Z,40.82
2023-03-19T10:18:40.145Z,40.74
2023-03-19T10:21:20.338Z,40.79
2023-03-19T10:23:59.208Z,40.96
2023-03-19T10:26:33.716Z,41.06
2023-03-19T10:29:15.264Z,41.22
2023-03-19T10:31:54.242Z,41.21
2023-03-19T10:34:27.005Z,41.15
2023-03-19T10:37:22.405Z,41.16
2023-03-19T10:39:58.205Z,41.36
2023-03-19T10:42:55.601Z,41.51
2023-03-19T10:45:29.810Z,41.60
2023-03-19T10:47:59.722Z,41.70
2023-03-19T10:50:31.878Z,41.81
2023-03-19T10:53:16.140Z,41.90
2023-03-19T10:55:57.913Z,42.10
2023-03-19T10:58:29.583Z,42.42
2023-03-19T11:01:11.920Z,42.70
2023-03-19T11:03:53.649Z,42.83
2023-03-19T11:06:43.102Z,43.01
2023-03-19T11:09:20.120Z,43.10
2023-03-19T11:11:51.093Z,43.28
2023-03-19T11:14:31.648Z,43.39
2023-03-19T11:17:20.811Z,43.47
2023-03-19T11:19:52.343Z,43.40
2023-03-19T11:22:34.866Z,43.35
2023-03-19T11:25:25.742Z,43.43
2023-03-19T11:28:26.307Z,43.41
2023-03-19T11:31:38.421Z,43.39
2023-03-19T11:35:00.274Z,43.59
2023-03-19T11:37:43.976Z,43.84
2023-03-19T11:40:34.264Z,43.83
2023-03-19T11:43:29.157Z,43.85
2023-03-19T11:46:24.035Z,43.65
2023-03-19T11:48:58.766Z,43.51
2023-03-19T11:51:43.649Z,43.61
2023-03-19T11:54:24.209Z,43.71
2023-03-19T11:56:56.144Z,43.84
2023-03-19T12:00:16.617Z,43.94
2023-03-19T12:03:24.644Z,44.02
2023-03-19T12:06:27.875Z,44.18
2023-03-19T12:09:09.872Z,44.27
2023-03-19T12:12:03.655Z,44.24
2023-03-19T12:14:54.837Z,44.19
2023-03-19T12:17:59.528Z,44.16
2023-03-19T12:20:35.536Z,44.21
2023-03-19T12:23:08.578Z,44.21
2023-03-19T12:26:04.877Z,44.25
2023-03-19T12:28:46.058Z,44.24
2023-03-19T12:31:26.126Z,44.02
2023-03-19T12:34:11.389Z,43.84
2023-03-19T12:36:55.099Z,43.85
2023-03-19T12:39:28.577Z,43.93
2023-03-19T12:41:59.984Z,44.13
2023-03-19T12:44:45.561Z,44.36
2023-03-19T12:47:25.721Z,44.47
2023-03-19T12:49:57.113Z,44.43
2023-03-19T12:52:32.552Z,44.48
2023-03-19T12:55:13.884Z,44.45
2023-03-19T12:57:50.753Z,44.24
2023-03-19T13:00:49.795Z,44.08
2023-03-19T13:03:32.673Z,44.05
2023-03-19T13:06:29.675Z,44.13
2023-03-19T13:09:05.452Z,44.25
2023-03-19T13:11:33.674Z,44.33
2023-03-19T13:14:43.043Z,44.41
2023-03-19T13:17:16.796Z,44.52
2023-03-19T13:19:56.172Z,44.48
2023-03-19T13:22:28.836Z,44.17
2023-03-19T13:24:56.739Z,44.12
2023-03-19T13:27:26.995Z,44.12
2023-03-19T13:30:11.655Z,44.18
2023-03-19T13:32:54.254Z,44.06
2023-03-19T13:35:43.943Z,43.79
2023-03-19T13:38:17.241Z,43.86
2023-03-19T13:40:54.414Z,43.73
2023-03-19T13:43:34.676Z,43.61
2023-03-19T13:46:12.246Z,43.86
2023-03-19T13:48:48.564Z,44.14
2023-03-19T13:51:28.398Z,44.35
2023-03-19T13:54:12.848Z,44.42
2023-03-19T13:57:01.323Z,44.71
2023-03-19T13:59:34.394Z,45.18
2023-03-19T14:02:25.973Z,45.52
2023-03-19T14:04:57.350Z,45.83
2023-03-19T14:07:27.167Z,45.94
2023-03-19T14:10:00.060Z,45.68
2023-03-19T14:12:39.636Z,45.43
2023-03-19T14:15:10.722Z,45.19
2023-03-19T14:17:48.539Z,44.98
2023-03-19T14:20:28.361Z,44.85
2023-03-19T14:23:11.450Z,44.93
2023-03-19T14:25:56.698Z,44.97
2023-03-19T14:28:33.686Z,45.18
2023-03-19T14:31:03.621Z,45.04
2023-03-19T14:33:54.926Z,44.80
2023-03-19T14:36:23.164Z,44.87
2023-03-19T14:38:53.738Z,44.88
2023-03-19T14:41:23.224Z,45.04
2023-03-19T14:43:59.228Z,45.11
2023-03-19T14:47:01.288Z,45.23
2023-03-19T14:50:08.865Z,45.59
2023-03-19T14:52:52.449Z,46.31
2023-03-19T14:55:22.186Z,46.95
2023-03-19T14:57:51.260Z,47.43
2023-03-19T15:00:20.273Z,47.91
2023-03-19T15:02:51.734Z,47.80
2023-03-19T15:05:36.381Z,47.53
2023-03-19T15:08:14.437Z,47.21
2023-03-19T15:11:08.468Z,47.27
2023-03-19T15:13:56.033Z,47.37
2023-03-19T15:17:07.931Z,47.65
2023-03-19T15:19:37.087Z,47.74
2023-03-19T15:22:10.985Z,47.70
2023-03-19T15:24:38.752Z,47.59
2023-03-19T15:33:42.519Z,47.62
2023-03-19T15:36:33.838Z,47.00
2023-03-19T15:39:05.186Z,46.34
2023-03-19T15:41:42.150Z,45.65
2023-03-19T15:44:17.030Z,44.95
2023-03-19T15:46:46.291Z,44.28
2023-03-19T15:49:41.189Z,43.85
2023-03-19T15:52:13.649Z,43.45
2023-03-19T15:54:44.313Z,43.09
2023-03-19T15:57:15.649Z,42.82
2023-03-19T15:59:47.819Z,42.77
2023-03-19T16:02:32.356Z,42.58
2023-03-19T16:05:20.822Z,42.30
2023-03-19T16:08:02.447Z,42.03
2023-03-19T16:10:43.143Z,41.76
2023-03-19T16:13:31.445Z,41.29
2023-03-19T16:16:22.471Z,41.07
2023-03-19T16:18:56.123Z,40.78
2023-03-19T16:21:40.330Z,40.54
2023-03-19T16:24:12.709Z,40.35
2023-03-19T16:26:43.555Z,40.19
2023-03-19T16:29:20.424Z,40.14
2023-03-19T16:31:53.190Z,40.07
2023-03-19T16:34:38.926Z,40.00
2023-03-19T16:37:29.231Z,39.75
2023-03-19T16:40:24.767Z,39.49
2023-03-19T16:42:56.994Z,39.39
2023-03-19T16:45:27.677Z,39.18
2023-03-19T16:48:04.103Z,38.99
2023-03-19T16:50:39.345Z,39.09
2023-03-19T16:53:30.523Z,38.90
2023-03-19T16:56:04.228Z,38.60
2023-03-19T16:58:43.492Z,38.40
2023-03-19T17:01:26.144Z,38.25
2023-03-19T17:03:56.580Z,38.07
2023-03-19T17:06:25.971Z,38.00
2023-03-19T17:08:57.324Z,37.84
2023-03-19T17:11:31.703Z,37.71
2023-03-19T17:14:07.361Z,37.68
2023-03-19T17:16:40.141Z,37.67
2023-03-19T17:19:13.945Z,37.55
2023-03-19T17:21:54.445Z,37.30
2023-03-19T17:24:30.115Z,37.12
2023-03-19T17:27:01.831Z,36.96
2023-03-19T17:29:36.445Z,36.93
2023-03-19T17:32:15.731Z,36.95
2023-03-19T17:34:46.235Z,36.67
2023-03-19T17:40:35.160Z,36.69
2023-03-19T17:43:07.803Z,36.59
2023-03-19T17:45:40.128Z,36.48
2023-03-19T17:48:39.142Z,36.21
2023-03-19T17:51:14.507Z,36.21
2023-03-19T17:53:47.283Z,36.01
2023-03-19T17:56:19.426Z,36.05
2023-03-19T17:58:50.597Z,35.93
2023-03-19T18:01:28.601Z,35.95
2023-03-19T18:03:58.899Z,36.08
2023-03-19T18:06:33.069Z,36.01
2023-03-19T18:09:03.490Z,35.98
2023-03-19T18:11:34.570Z,35.82
2023-03-19T18:14:03.967Z,35.48
2023-03-19T18:16:39.949Z,35.33
2023-03-19T18:19:33.597Z,35.04
2023-03-19T18:22:07.549Z,34.90
2023-03-19T18:24:44.315Z,34.78
2023-03-19T18:27:14.192Z,34.76
2023-03-19T18:29:44.308Z,34.72
2023-03-19T18:32:22.580Z,34.64
2023-03-19T18:34:52.608Z,34.68
2023-03-19T18:37:24.049Z,34.78
2023-03-19T18:39:54.779Z,34.64
2023-03-19T18:42:25.971Z,34.36
2023-03-19T18:44:56.808Z,34.37
2023-03-19T18:47:27.017Z,34.41
2023-03-19T18:49:59.549Z,34.33
2023-03-19T18:52:29.168Z,34.33
2023-03-19T18:54:59.024Z,34.23
2023-03-19T18:57:28.630Z,34.22
2023-03-19T19:00:02.192Z,34.07
2023-03-19T19:02:39.892Z,33.97
2023-03-19T19:05:15.157Z,34.08
2023-03-19T19:07:46.502Z,33.99
2023-03-19T19:10:16.328Z,33.98
2023-03-19T19:12:47.444Z,33.80
2023-03-19T19:15:25.005Z,33.63
2023-03-19T19:17:55.959Z,33.57
2023-03-19T19:20:27.890Z,33.55
2023-03-19T19:22:58.703Z,33.65
2023-03-19T19:25:29.727Z,33.63
2023-03-19T19:28:04.919Z,33.60
2023-03-19T19:30:36.610Z,33.62
2023-03-19T19:33:16.651Z,33.56
2023-03-19T19:35:46.757Z,33.62
2023-03-19T19:38:16.728Z,33.77
2023-03-19T19:40:50.786Z,33.71
2023-03-19T19:43:30.830Z,33.71
2023-03-19T19:46:01.238Z,33.71
2023-03-19T19:48:33.826Z,33.60
2023-03-19T19:51:05.860Z,33.55
2023-03-19T19:53:39.568Z,33.59
2023-03-19T19:56:22.869Z,33.62
2023-03-19T19:59:40.313Z,33.58
2023-03-19T20:02:36.841Z,33.50
2023-03-19T20:05:07.829Z,33.43
2023-03-19T20:07:38.703Z,33.37
2023-03-19T20:10:14.108Z,33.35
2023-03-19T20:12:51.805Z,33.36
2023-03-19T20:15:29.392Z,33.36
2023-03-19T20:18:04.883Z,33.40
2023-03-19T20:20:36.646Z,33.47
2023-03-19T20:23:08.651Z,33.50
2023-03-19T20:25:39.754Z,33.46
2023-03-19T20:28:12.374Z,33.35
2023-03-19T20:30:42.763Z,33.30
2023-03-19T20:33:13.458Z,33.17
2023-03-19T20:35:43.878Z,32.99
2023-03-19T20:38:15.055Z,32.76
2023-03-19T20:40:56.831Z,32.55
2023-03-19T20:43:28.456Z,32.62
2023-03-19T20:46:04.948Z,32.89
2023-03-19T20:48:36.205Z,32.67
2023-03-19T20:51:06.004Z,32.57
2023-03-19T20:53:40.280Z,32.59
2023-03-19T20:56:16.700Z,32.50
2023-03-19T20:58:49.860Z,32.48
2023-03-19T21:01:22.493Z,32.54
2023-03-19T21:03:53.893Z,32.66
2023-03-19T21:06:25.668Z,32.75
2023-03-19T21:08:59.248Z,32.74
2023-03-19T21:11:40.435Z,32.70
2023-03-19T21:14:16.565Z,32.76
2023-03-19T21:16:46.072Z,32.75
2023-03-19T21:19:16.984Z,32.73
2023-03-19T21:21:52.729Z,32.65
2023-03-19T21:24:39.615Z,32.68
2023-03-19T21:27:32.725Z,32.77
2023-03-19T21:30:16.413Z,32.62
2023-03-19T21:32:46.972Z,32.51
2023-03-19T21:35:33.421Z,32.36
2023-03-19T21:38:08.911Z,32.29
2023-03-19T21:40:38.526Z,32.16
2023-03-19T21:43:08.329Z,32.13
2023-03-19T21:45:39.560Z,32.21
2023-03-19T21:48:33.985Z,32.20
2023-03-19T21:51:29.485Z,32.20
2023-03-19T21:54:03.636Z,32.24
2023-03-19T21:56:41.300Z,32.24
2023-03-19T21:59:14.516Z,32.26
2023-03-19T22:01:44.158Z,32.14
2023-03-19T22:04:15.272Z,32.09
2023-03-19T22:06:47.920Z,31.91
2023-03-19T22:09:21.243Z,31.85
2023-03-19T22:11:52.762Z,31.74
2023-03-19T22:14:27.150Z,31.65
2023-03-19T22:16:59.276Z,31.44
2023-03-19T22:19:30.679Z,31.19
2023-03-19T22:22:01.360Z,31.07
2023-03-19T22:24:31.428Z,31.01
2023-03-19T22:27:01.968Z,30.90
2023-03-19T22:29:36.801Z,30.92
2023-03-19T22:32:07.339Z,31.03
2023-03-19T22:34:37.928Z,30.91
2023-03-19T22:37:30.222Z,31.01
2023-03-19T22:40:00.014Z,31.12
2023-03-19T22:42:30.525Z,31.30
2023-03-19T22:45:04.652Z,31.37
2023-03-19T22:47:36.474Z,31.40
2023-03-19T22:50:07.097Z,31.40
2023-03-19T22:52:38.027Z,31.43
2023-03-19T22:55:15.246Z,31.45
2023-03-19T22:57:45.805Z,31.35
2023-03-19T23:00:24.369Z,31.36
2023-03-19T23:02:58.656Z,31.50
2023-03-19T23:05:29.994Z,31.42
2023-03-19T23:08:00.640Z,31.29
2023-03-19T23:10:31.322Z,31.24
2023-03-19T23:13:07.809Z,31.20
2023-03-19T23:15:38.632Z,31.26
2023-03-19T23:18:19.228Z,31.30
2023-03-19T23:20:51.857Z,31.30
2023-03-19T23:23:22.452Z,31.27
2023-03-19T23:25:57.711Z,31.33
